sensor_id;sensor_type;location;lat;lon;timestamp;P1;durP1;ratioP1;P2;durP2;ratioP2
24745;SDS011;12845;52.042;6.838;2023-03-20T00:01:47;64.50;;;28.95;;
24745;SDS011;12845;52.042;6.838;2023-03-20T00:04:13;58.83;;;26.33;;
24745;SDS011;12845;52.042;6.838;2023-03-20T00:06:38;64.25;;;34.22;;
24745;SDS011;12845;52.042;6.838;2023-03-20T00:09:04;61.90;;;27.48;;
24745;SDS011;12845;52.042;6.838;2023-03-20T00:11:30;62.22;;;29.60;;
24745;SDS011;12845;52.042;6.838;2023-03-20T00:16:28;61.60;;;29.48;;
24745;SDS011;12845;52.042;6.838;2023-03-20T00:18:56;61.42;;;25.48;;
24745;SDS011;12845;52.042;6.838;2023-03-20T00:21:22;61.80;;;26.92;;
24745;SDS011;12845;52.042;6.838;2023-03-20T00:23:48;61.53;;;30.55;;
24745;SDS011;12845;52.042;6.838;2023-03-20T00:26:14;59.63;;;29.23;;
24745;SDS011;12845;52.042;6.838;2023-03-20T00:28:45;53.70;;;22.63;;
24745;SDS011;12845;52.042;6.838;2023-03-20T00:31:21;54.42;;;24.35;;
24745;SDS011;12845;52.042;6.838;2023-03-20T00:33:49;56.80;;;25.00;;
24745;SDS011;12845;52.042;6.838;2023-03-20T00:36:16;60.58;;;29.55;;
24745;SDS011;12845;52.042;6.838;2023-03-20T00:38:41;59.45;;;29.63;;
24745;SDS011;12845;52.042;6.838;2023-03-20T00:41:23;58.90;;;27.55;;
24745;SDS011;12845;52.042;6.838;2023-03-20T00:43:52;57.63;;;28.80;;
24745;SDS011;12845;52.042;6.838;2023-03-20T00:46:21;54.20;;;26.30;;
24745;SDS011;12845;52.042;6.838;2023-03-20T00:48:48;55.10;;;22.88;;
24745;SDS011;12845;52.042;6.838;2023-03-20T00:51:13;61.67;;;28.05;;
24745;SDS011;12845;52.042;6.838;2023-03-20T00:53:40;58.08;;;27.65;;
24745;SDS011;12845;52.042;6.838;2023-03-20T00:56:05;57.45;;;26.27;;
24745;SDS011;12845;52.042;6.838;2023-03-20T00:58:43;57.47;;;26.63;;
24745;SDS011;12845;52.042;6.838;2023-03-20T01:01:08;50.38;;;23.17;;
24745;SDS011;12845;52.042;6.838;2023-03-20T01:03:33;57.00;;;25.27;;
24745;SDS011;12845;52.042;6.838;2023-03-20T01:05:59;56.25;;;25.45;;
24745;SDS011;12845;52.042;6.838;2023-03-20T01:08:24;51.20;;;23.95;;
24745;SDS011;12845;52.042;6.838;2023-03-20T01:10:54;50.13;;;24.02;;
24745;SDS011;12845;52.042;6.838;2023-03-20T01:13:26;51.90;;;26.42;;
24745;SDS011;12845;52.042;6.838;2023-03-20T01:15:53;51.45;;;28.00;;
24745;SDS011;12845;52.042;6.838;2023-03-20T01:18:21;49.28;;;26.98;;
24745;SDS011;12845;52.042;6.838;2023-03-20T01:20:47;42.28;;;23.00;;
24745;SDS011;12845;52.042;6.838;2023-03-20T01:23:13;44.97;;;25.83;;
24745;SDS011;12845;52.042;6.838;2023-03-20T01:25:40;43.88;;;21.10;;
24745;SDS011;12845;52.042;6.838;2023-03-20T01:28:16;44.20;;;22.10;;
24745;SDS011;12845;52.042;6.838;2023-03-20T01:30:43;46.45;;;24.67;;
24745;SDS011;12845;52.042;6.838;2023-03-20T01:33:16;40.10;;;19.30;;
24745;SDS011;12845;52.042;6.838;2023-03-20T01:35:44;40.63;;;21.45;;
24745;SDS011;12845;52.042;6.838;2023-03-20T01:38:20;39.92;;;19.30;;
24745;SDS011;12845;52.042;6.838;2023-03-20T01:40:55;40.38;;;18.38;;
24745;SDS011;12845;52.042;6.838;2023-03-20T01:43:26;38.47;;;19.35;;
24745;SDS011;12845;52.042;6.838;2023-03-20T01:51:13;36.58;;;19.52;;
24745;SDS011;12845;52.042;6.838;2023-03-20T01:53:39;36.25;;;17.15;;
24745;SDS011;12845;52.042;6.838;2023-03-20T01:56:05;37.75;;;17.27;;
24745;SDS011;12845;52.042;6.838;2023-03-20T01:58:32;31.17;;;15.80;;
24745;SDS011;12845;52.042;6.838;2023-03-20T02:01:03;36.45;;;17.95;;
24745;SDS011;12845;52.042;6.838;2023-03-20T02:03:30;32.38;;;16.38;;
24745;SDS011;12845;52.042;6.838;2023-03-20T02:05:56;35.47;;;17.63;;
24745;SDS011;12845;52.042;6.838;2023-03-20T02:08:26;38.63;;;17.77;;
24745;SDS011;12845;52.042;6.838;2023-03-20T02:10:54;37.15;;;17.25;;
24745;SDS011;12845;52.042;6.838;2023-03-20T02:13:22;37.70;;;15.63;;
24745;SDS011;12845;52.042;6.838;2023-03-20T02:18:27;37.63;;;17.55;;
24745;SDS011;12845;52.042;6.838;2023-03-20T02:21:12;34.15;;;17.48;;
24745;SDS011;12845;52.042;6.838;2023-03-20T02:43:47;42.53;;;19.52;;
24745;SDS011;12845;52.042;6.838;2023-03-20T02:46:45;32.85;;;14.80;;
24745;SDS011;12845;52.042;6.838;2023-03-20T02:52:37;36.88;;;18.75;;
24745;SDS011;12845;52.042;6.838;2023-03-20T02:55:15;35.47;;;16.25;;
24745;SDS011;12845;52.042;6.838;2023-03-20T02:58:02;39.33;;;18.75;;
24745;SDS011;12845;52.042;6.838;2023-03-20T03:00:44;35.53;;;14.85;;
24745;SDS011;12845;52.042;6.838;2023-03-20T03:03:17;38.08;;;18.75;;
24745;SDS011;12845;52.042;6.838;2023-03-20T03:08:19;35.20;;;16.58;;
24745;SDS011;12845;52.042;6.838;2023-03-20T03:10:54;38.90;;;16.98;;
24745;SDS011;12845;52.042;6.838;2023-03-20T03:13:26;38.17;;;19.05;;
24745;SDS011;12845;52.042;6.838;2023-03-20T03:15:55;34.50;;;16.92;;
24745;SDS011;12845;52.042;6.838;2023-03-20T03:18:28;31.65;;;15.13;;
24745;SDS011;12845;52.042;6.838;2023-03-20T03:20:56;35.25;;;17.42;;
24745;SDS011;12845;52.042;6.838;2023-03-20T03:23:26;32.42;;;14.20;;
24745;SDS011;12845;52.042;6.838;2023-03-20T03:25:55;33.25;;;17.85;;
24745;SDS011;12845;52.042;6.838;2023-03-20T03:28:28;31.65;;;15.88;;
24745;SDS011;12845;52.042;6.838;2023-03-20T03:31:01;31.73;;;17.38;;
24745;SDS011;12845;52.042;6.838;2023-03-20T03:33:29;29.67;;;13.73;;
24745;SDS011;12845;52.042;6.838;2023-03-20T03:36:12;34.50;;;18.80;;
24745;SDS011;12845;52.042;6.838;2023-03-20T03:41:21;31.77;;;15.68;;
24745;SDS011;12845;52.042;6.838;2023-03-20T03:43:55;32.60;;;15.98;;
24745;SDS011;12845;52.042;6.838;2023-03-20T03:49:01;32.60;;;14.70;;
24745;SDS011;12845;52.042;6.838;2023-03-20T03:51:30;34.05;;;16.80;;
24745;SDS011;12845;52.042;6.838;2023-03-20T03:54:08;27.52;;;14.80;;
24745;SDS011;12845;52.042;6.838;2023-03-20T03:56:38;35.15;;;16.48;;
24745;SDS011;12845;52.042;6.838;2023-03-20T03:59:26;30.08;;;16.58;;
24745;SDS011;12845;52.042;6.838;2023-03-20T04:01:59;33.28;;;14.85;;
24745;SDS011;12845;52.042;6.838;2023-03-20T04:04:27;30.30;;;14.25;;
24745;SDS011;12845;52.042;6.838;2023-03-20T04:06:55;30.33;;;16.95;;
24745;SDS011;12845;52.042;6.838;2023-03-20T04:09:21;25.83;;;14.02;;
24745;SDS011;12845;52.042;6.838;2023-03-20T04:11:47;27.45;;;16.02;;
24745;SDS011;12845;52.042;6.838;2023-03-20T04:14:15;27.25;;;13.63;;
24745;SDS011;12845;52.042;6.838;2023-03-20T04:16:40;23.77;;;12.55;;
24745;SDS011;12845;52.042;6.838;2023-03-20T04:19:06;29.73;;;15.02;;
24745;SDS011;12845;52.042;6.838;2023-03-20T04:21:31;28.48;;;13.55;;
24745;SDS011;12845;52.042;6.838;2023-03-20T04:23:57;25.08;;;14.70;;
24745;SDS011;12845;52.042;6.838;2023-03-20T04:26:22;28.23;;;15.10;;
24745;SDS011;12845;52.042;6.838;2023-03-20T04:28:48;27.48;;;11.98;;
24745;SDS011;12845;52.042;6.838;2023-03-20T04:31:13;24.40;;;12.30;;
24745;SDS011;12845;52.042;6.838;2023-03-20T04:33:39;23.42;;;13.00;;
24745;SDS011;12845;52.042;6.838;2023-03-20T04:36:04;23.60;;;13.43;;
24745;SDS011;12845;52.042;6.838;2023-03-20T04:38:30;30.75;;;15.68;;
24745;SDS011;12845;52.042;6.838;2023-03-20T04:40:56;30.90;;;16.70;;
24745;SDS011;12845;52.042;6.838;2023-03-20T04:43:21;32.28;;;15.93;;
24745;SDS011;12845;52.042;6.838;2023-03-20T04:45:46;36.85;;;17.15;;
24745;SDS011;12845;52.042;6.838;2023-03-20T04:48:12;40.83;;;21.90;;
24745;SDS011;12845;52.042;6.838;2023-03-20T04:50:37;35.30;;;18.50;;
24745;SDS011;12845;52.042;6.838;2023-03-20T04:53:03;36.70;;;17.23;;
24745;SDS011;12845;52.042;6.838;2023-03-20T04:55:28;31.65;;;18.52;;
24745;SDS011;12845;52.042;6.838;2023-03-20T04:57:54;35.78;;;19.88;;
24745;SDS011;12845;52.042;6.838;2023-03-20T05:00:19;38.78;;;21.13;;
24745;SDS011;12845;52.042;6.838;2023-03-20T05:02:45;36.88;;;16.48;;
24745;SDS011;12845;52.042;6.838;2023-03-20T05:05:11;35.38;;;17.98;;
24745;SDS011;12845;52.042;6.838;2023-03-20T05:07:36;34.72;;;17.38;;
24745;SDS011;12845;52.042;6.838;2023-03-20T05:10:02;37.67;;;19.20;;
24745;SDS011;12845;52.042;6.838;2023-03-20T05:12:29;34.30;;;19.77;;
24745;SDS011;12845;52.042;6.838;2023-03-20T05:14:55;35.20;;;18.88;;
24745;SDS011;12845;52.042;6.838;2023-03-20T05:17:21;35.45;;;17.20;;
24745;SDS011;12845;52.042;6.838;2023-03-20T05:19:49;32.22;;;16.75;;
24745;SDS011;12845;52.042;6.838;2023-03-20T05:22:15;31.45;;;16.70;;
24745;SDS011;12845;52.042;6.838;2023-03-20T05:24:41;30.73;;;15.50;;
24745;SDS011;12845;52.042;6.838;2023-03-20T05:27:06;28.00;;;14.80;;
24745;SDS011;12845;52.042;6.838;2023-03-20T05:29:32;27.88;;;14.43;;
24745;SDS011;12845;52.042;6.838;2023-03-20T05:31:57;26.38;;;11.88;;
24745;SDS011;12845;52.042;6.838;2023-03-20T05:34:22;26.73;;;14.57;;
24745;SDS011;12845;52.042;6.838;2023-03-20T05:36:48;24.02;;;10.63;;
24745;SDS011;12845;52.042;6.838;2023-03-20T05:39:13;27.48;;;12.52;;
24745;SDS011;12845;52.042;6.838;2023-03-20T05:41:38;21.58;;;11.43;;
24745;SDS011;12845;52.042;6.838;2023-03-20T05:44:04;24.85;;;11.70;;
24745;SDS011;12845;52.042;6.838;2023-03-20T05:46:30;21.70;;;11.13;;
24745;SDS011;12845;52.042;6.838;2023-03-20T05:48:55;23.13;;;12.70;;
24745;SDS011;12845;52.042;6.838;2023-03-20T05:51:20;24.33;;;12.15;;
24745;SDS011;12845;52.042;6.838;2023-03-20T05:53:46;21.25;;;11.43;;
24745;SDS011;12845;52.042;6.838;2023-03-20T05:56:11;22.48;;;11.85;;
24745;SDS011;12845;52.042;6.838;2023-03-20T05:58:37;20.73;;;10.80;;
24745;SDS011;12845;52.042;6.838;2023-03-20T06:01:02;23.20;;;10.77;;
24745;SDS011;12845;52.042;6.838;2023-03-20T06:03:28;25.50;;;13.43;;
24745;SDS011;12845;52.042;6.838;2023-03-20T06:05:53;22.85;;;12.85;;
24745;SDS011;12845;52.042;6.838;2023-03-20T06:08:19;23.08;;;11.95;;
24745;SDS011;12845;52.042;6.838;2023-03-20T06:10:44;24.05;;;12.85;;
24745;SDS011;12845;52.042;6.838;2023-03-20T06:13:10;26.00;;;14.48;;
24745;SDS011;12845;52.042;6.838;2023-03-20T06:15:35;20.13;;;11.35;;
24745;SDS011;12845;52.042;6.838;2023-03-20T06:18:01;25.65;;;13.07;;
24745;SDS011;12845;52.042;6.838;2023-03-20T06:20:26;26.25;;;13.82;;
24745;SDS011;12845;52.042;6.838;2023-03-20T06:22:52;24.35;;;12.45;;
24745;SDS011;12845;52.042;6.838;2023-03-20T06:25:18;23.98;;;12.70;;
24745;SDS011;12845;52.042;6.838;2023-03-20T06:27:45;23.15;;;12.55;;
24745;SDS011;12845;52.042;6.838;2023-03-20T06:30:11;23.83;;;13.25;;
24745;SDS011;12845;52.042;6.838;2023-03-20T06:32:38;23.95;;;13.05;;
24745;SDS011;12845;52.042;6.838;2023-03-20T06:35:03;25.77;;;13.73;;
24745;SDS011;12845;52.042;6.838;2023-03-20T06:37:30;30.70;;;14.35;;
24745;SDS011;12845;52.042;6.838;2023-03-20T06:39:56;24.67;;;12.70;;
24745;SDS011;12845;52.042;6.838;2023-03-20T06:42:21;27.00;;;13.43;;
24745;SDS011;12845;52.042;6.838;2023-03-20T06:44:46;25.30;;;13.05;;
24745;SDS011;12845;52.042;6.838;2023-03-20T06:47:12;24.60;;;12.90;;
24745;SDS011;12845;52.042;6.838;2023-03-20T06:49:37;23.50;;;12.82;;
24745;SDS011;12845;52.042;6.838;2023-03-20T06:52:03;25.45;;;12.32;;
24745;SDS011;12845;52.042;6.838;2023-03-20T06:54:28;23.95;;;12.52;;
24745;SDS011;12845;52.042;6.838;2023-03-20T06:56:54;23.30;;;10.77;;
24745;SDS011;12845;52.042;6.838;2023-03-20T06:59:19;27.10;;;12.35;;
24745;SDS011;12845;52.042;6.838;2023-03-20T07:01:45;22.52;;;10.55;;
24745;SDS011;12845;52.042;6.838;2023-03-20T07:04:10;27.52;;;11.75;;
24745;SDS011;12845;52.042;6.838;2023-03-20T07:06:36;22.83;;;11.52;;
24745;SDS011;12845;52.042;6.838;2023-03-20T07:09:02;23.02;;;12.25;;
24745;SDS011;12845;52.042;6.838;2023-03-20T07:11:28;23.70;;;11.38;;
24745;SDS011;12845;52.042;6.838;2023-03-20T07:13:54;23.75;;;10.82;;
24745;SDS011;12845;52.042;6.838;2023-03-20T07:16:19;21.50;;;10.70;;
24745;SDS011;12845;52.042;6.838;2023-03-20T07:18:45;20.88;;;10.55;;
24745;SDS011;12845;52.042;6.838;2023-03-20T07:21:12;18.52;;;9.10;;
24745;SDS011;12845;52.042;6.838;2023-03-20T07:23:44;17.60;;;8.60;;
24745;SDS011;12845;52.042;6.838;2023-03-20T07:26:09;24.70;;;10.40;;
24745;SDS011;12845;52.042;6.838;2023-03-20T07:28:35;19.20;;;10.70;;
24745;SDS011;12845;52.042;6.838;2023-03-20T07:31:00;22.10;;;10.63;;
24745;SDS011;12845;52.042;6.838;2023-03-20T07:33:26;20.65;;;9.40;;
24745;SDS011;12845;52.042;6.838;2023-03-20T07:35:52;20.88;;;10.95;;
24745;SDS011;12845;52.042;6.838;2023-03-20T07:38:18;18.02;;;10.00;;
24745;SDS011;12845;52.042;6.838;2023-03-20T07:40:45;17.80;;;9.35;;
24745;SDS011;12845;52.042;6.838;2023-03-20T07:43:10;18.58;;;9.23;;
24745;SDS011;12845;52.042;6.838;2023-03-20T07:45:35;21.90;;;9.75;;
24745;SDS011;12845;52.042;6.838;2023-03-20T07:48:01;20.85;;;10.00;;
24745;SDS011;12845;52.042;6.838;2023-03-20T07:50:26;17.73;;;9.68;;
24745;SDS011;12845;52.042;6.838;2023-03-20T07:52:51;15.32;;;8.32;;
24745;SDS011;12845;52.042;6.838;2023-03-20T07:55:17;18.05;;;9.73;;
24745;SDS011;12845;52.042;6.838;2023-03-20T07:57:42;19.35;;;9.00;;
24745;SDS011;12845;52.042;6.838;2023-03-20T08:00:08;18.10;;;9.52;;
24745;SDS011;12845;52.042;6.838;2023-03-20T08:02:34;17.17;;;8.52;;
24745;SDS011;12845;52.042;6.838;2023-03-20T08:05:00;19.67;;;9.93;;
24745;SDS011;12845;52.042;6.838;2023-03-20T08:07:25;17.10;;;9.30;;
24745;SDS011;12845;52.042;6.838;2023-03-20T08:09:50;17.92;;;9.32;;
24745;SDS011;12845;52.042;6.838;2023-03-20T08:12:16;19.05;;;9.32;;
24745;SDS011;12845;52.042;6.838;2023-03-20T08:14:42;18.75;;;9.13;;
24745;SDS011;12845;52.042;6.838;2023-03-20T08:17:08;18.08;;;9.60;;
24745;SDS011;12845;52.042;6.838;2023-03-20T08:19:33;16.92;;;7.97;;
24745;SDS011;12845;52.042;6.838;2023-03-20T08:21:59;16.52;;;8.48;;
24745;SDS011;12845;52.042;6.838;2023-03-20T08:24:24;13.50;;;7.53;;
24745;SDS011;12845;52.042;6.838;2023-03-20T08:26:50;14.00;;;6.72;;
24745;SDS011;12845;52.042;6.838;2023-03-20T08:29:16;16.40;;;6.97;;
24745;SDS011;12845;52.042;6.838;2023-03-20T08:31:43;12.45;;;7.78;;
24745;SDS011;12845;52.042;6.838;2023-03-20T08:34:09;17.42;;;8.00;;
24745;SDS011;12845;52.042;6.838;2023-03-20T08:36:34;16.48;;;7.00;;
24745;SDS011;12845;52.042;6.838;2023-03-20T08:39:00;14.85;;;6.63;;
24745;SDS011;12845;52.042;6.838;2023-03-20T08:41:25;13.18;;;7.10;;
24745;SDS011;12845;52.042;6.838;2023-03-20T08:43:51;12.38;;;6.93;;
24745;SDS011;12845;52.042;6.838;2023-03-20T08:46:16;13.30;;;7.82;;
24745;SDS011;12845;52.042;6.838;2023-03-20T08:48:41;15.45;;;7.28;;
24745;SDS011;12845;52.042;6.838;2023-03-20T08:51:07;13.32;;;6.80;;
24745;SDS011;12845;52.042;6.838;2023-03-20T08:53:32;15.13;;;7.00;;
24745;SDS011;12845;52.042;6.838;2023-03-20T08:55:58;15.38;;;6.97;;
24745;SDS011;12845;52.042;6.838;2023-03-20T08:58:23;13.18;;;7.85;;
24745;SDS011;12845;52.042;6.838;2023-03-20T09:00:49;12.20;;;6.13;;
24745;SDS011;12845;52.042;6.838;2023-03-20T09:03:15;12.18;;;6.20;;
24745;SDS011;12845;52.042;6.838;2023-03-20T09:05:43;11.32;;;6.63;;
24745;SDS011;12845;52.042;6.838;2023-03-20T09:08:10;11.27;;;6.45;;
24745;SDS011;12845;52.042;6.838;2023-03-20T09:10:36;11.75;;;5.28;;
24745;SDS011;12845;52.042;6.838;2023-03-20T09:13:01;11.60;;;4.93;;
24745;SDS011;12845;52.042;6.838;2023-03-20T09:15:26;12.13;;;5.57;;
24745;SDS011;12845;52.042;6.838;2023-03-20T09:17:52;11.57;;;5.10;;
24745;SDS011;12845;52.042;6.838;2023-03-20T09:20:18;11.77;;;5.32;;
24745;SDS011;12845;52.042;6.838;2023-03-20T09:22:43;11.15;;;4.45;;
24745;SDS011;12845;52.042;6.838;2023-03-20T09:25:09;12.13;;;4.80;;
24745;SDS011;12845;52.042;6.838;2023-03-20T09:27:36;12.13;;;5.22;;
24745;SDS011;12845;52.042;6.838;2023-03-20T09:30:02;9.05;;;4.32;;
24745;SDS011;12845;52.042;6.838;2023-03-20T09:32:28;9.13;;;4.82;;
24745;SDS011;12845;52.042;6.838;2023-03-20T09:34:53;8.88;;;4.22;;
24745;SDS011;12845;52.042;6.838;2023-03-20T09:37:19;10.20;;;4.05;;
24745;SDS011;12845;52.042;6.838;2023-03-20T09:39:44;11.10;;;4.05;;
24745;SDS011;12845;52.042;6.838;2023-03-20T09:42:20;8.52;;;4.13;;
24745;SDS011;12845;52.042;6.838;2023-03-20T09:47:46;10.82;;;4.10;;
24745;SDS011;12845;52.042;6.838;2023-03-20T09:53:16;9.73;;;4.25;;
24745;SDS011;12845;52.042;6.838;2023-03-20T09:55:43;7.70;;;3.55;;
24745;SDS011;12845;52.042;6.838;2023-03-20T09:58:11;9.43;;;4.10;;
24745;SDS011;12845;52.042;6.838;2023-03-20T10:00:43;11.25;;;4.70;;
24745;SDS011;12845;52.042;6.838;2023-03-20T10:03:20;13.18;;;3.92;;
24745;SDS011;12845;52.042;6.838;2023-03-20T10:06:14;9.60;;;4.40;;
24745;SDS011;12845;52.042;6.838;2023-03-20T10:08:40;10.18;;;4.25;;
24745;SDS011;12845;52.042;6.838;2023-03-20T10:11:15;8.05;;;3.53;;
24745;SDS011;12845;52.042;6.838;2023-03-20T10:19:44;9.70;;;3.85;;
24745;SDS011;12845;52.042;6.838;2023-03-20T10:24:48;6.60;;;3.30;;
24745;SDS011;12845;52.042;6.838;2023-03-20T10:27:23;7.70;;;4.25;;
24745;SDS011;12845;52.042;6.838;2023-03-20T10:33:00;11.25;;;3.78;;
24745;SDS011;12845;52.042;6.838;2023-03-20T10:41:08;9.35;;;3.78;;
24745;SDS011;12845;52.042;6.838;2023-03-20T10:43:38;8.85;;;4.05;;
24745;SDS011;12845;52.042;6.838;2023-03-20T10:46:16;9.45;;;3.78;;
24745;SDS011;12845;52.042;6.838;2023-03-20T10:48:46;7.20;;;3.97;;
24745;SDS011;12845;52.042;6.838;2023-03-20T10:51:16;8.50;;;3.55;;
24745;SDS011;12845;52.042;6.838;2023-03-20T10:53:48;11.85;;;4.18;;
24745;SDS011;12845;52.042;6.838;2023-03-20T10:56:37;9.68;;;3.17;;
24745;SDS011;12845;52.042;6.838;2023-03-20T10:59:56;9.05;;;3.33;;
24745;SDS011;12845;52.042;6.838;2023-03-20T11:02:11;6.60;;;2.75;;
24745;SDS011;12845;52.042;6.838;2023-03-20T11:04:38;7.80;;;3.05;;
24745;SDS011;12845;52.042;6.838;2023-03-20T11:09:41;10.98;;;3.67;;
24745;SDS011;12845;52.042;6.838;2023-03-20T11:12:13;10.32;;;3.90;;
24745;SDS011;12845;52.042;6.838;2023-03-20T11:14:42;11.27;;;3.90;;
24745;SDS011;12845;52.042;6.838;2023-03-20T11:17:07;10.88;;;3.50;;
24745;SDS011;12845;52.042;6.838;2023-03-20T11:19:35;6.05;;;2.80;;
24745;SDS011;12845;52.042;6.838;2023-03-20T11:22:21;12.32;;;3.40;;
24745;SDS011;12845;52.042;6.838;2023-03-20T11:24:50;4.20;;;2.08;;
24745;SDS011;12845;52.042;6.838;2023-03-20T11:29:54;5.68;;;1.67;;
24745;SDS011;12845;52.042;6.838;2023-03-20T11:34:53;5.03;;;1.98;;
24745;SDS011;12845;52.042;6.838;2023-03-20T11:37:23;6.88;;;2.42;;
24745;SDS011;12845;52.042;6.838;2023-03-20T11:42:31;7.00;;;2.58;;
24745;SDS011;12845;52.042;6.838;2023-03-20T11:45:01;6.43;;;3.40;;
24745;SDS011;12845;52.042;6.838;2023-03-20T11:47:40;10.40;;;4.55;;
24745;SDS011;12845;52.042;6.838;2023-03-20T11:50:23;11.35;;;4.05;;
24745;SDS011;12845;52.042;6.838;2023-03-20T11:52:51;10.48;;;4.57;;
24745;SDS011;12845;52.042;6.838;2023-03-20T11:55:25;8.38;;;4.18;;
24745;SDS011;12845;52.042;6.838;2023-03-20T11:57:57;10.05;;;4.95;;
24745;SDS011;12845;52.042;6.838;2023-03-20T12:00:25;8.48;;;4.63;;
24745;SDS011;12845;52.042;6.838;2023-03-20T12:02:53;10.68;;;4.95;;
24745;SDS011;12845;52.042;6.838;2023-03-20T12:05:26;8.27;;;4.68;;
24745;SDS011;12845;52.042;6.838;2023-03-20T12:08:02;11.73;;;5.40;;
24745;SDS011;12845;52.042;6.838;2023-03-20T12:10:41;9.35;;;5.22;;
24745;SDS011;12845;52.042;6.838;2023-03-20T12:13:12;11.73;;;5.32;;
24745;SDS011;12845;52.042;6.838;2023-03-20T12:15:40;9.95;;;5.90;;
24745;SDS011;12845;52.042;6.838;2023-03-20T12:21:22;10.18;;;5.50;;
24745;SDS011;12845;52.042;6.838;2023-03-20T12:26:38;11.90;;;5.63;;
24745;SDS011;12845;52.042;6.838;2023-03-20T12:29:21;13.10;;;5.88;;
24745;SDS011;12845;52.042;6.838;2023-03-20T12:31:55;12.07;;;6.13;;
24745;SDS011;12845;52.042;6.838;2023-03-20T12:34:27;10.25;;;5.10;;
24745;SDS011;12845;52.042;6.838;2023-03-20T12:36:56;10.25;;;4.50;;
24745;SDS011;12845;52.042;6.838;2023-03-20T12:39:22;10.40;;;5.43;;
24745;SDS011;12845;52.042;6.838;2023-03-20T12:44:47;8.38;;;4.30;;
24745;SDS011;12845;52.042;6.838;2023-03-20T12:55:41;11.00;;;4.60;;
24745;SDS011;12845;52.042;6.838;2023-03-20T13:01:02;8.65;;;4.00;;
24745;SDS011;12845;52.042;6.838;2023-03-20T13:06:23;9.23;;;4.13;;
24745;SDS011;12845;52.042;6.838;2023-03-20T13:22:36;7.25;;;3.55;;
24745;SDS011;12845;52.042;6.838;2023-03-20T13:25:16;9.82;;;3.63;;
24745;SDS011;12845;52.042;6.838;2023-03-20T13:27:48;8.80;;;4.07;;
24745;SDS011;12845;52.042;6.838;2023-03-20T13:38:16;8.98;;;4.28;;
24745;SDS011;12845;52.042;6.838;2023-03-20T13:40:45;9.40;;;4.32;;
24745;SDS011;12845;52.042;6.838;2023-03-20T13:46:01;12.70;;;3.97;;
24745;SDS011;12845;52.042;6.838;2023-03-20T13:56:28;11.48;;;4.43;;
24745;SDS011;12845;52.042;6.838;2023-03-20T14:02:03;12.18;;;6.13;;
24745;SDS011;12845;52.042;6.838;2023-03-20T14:04:33;8.55;;;4.63;;
24745;SDS011;12845;52.042;6.838;2023-03-20T14:06:59;9.35;;;5.13;;
24745;SDS011;12845;52.042;6.838;2023-03-20T14:09:30;12.73;;;4.88;;
24745;SDS011;12845;52.042;6.838;2023-03-20T14:11:58;7.97;;;4.25;;
24745;SDS011;12845;52.042;6.838;2023-03-20T14:14:30;8.25;;;3.88;;
24745;SDS011;12845;52.042;6.838;2023-03-20T14:17:01;9.68;;;4.47;;
24745;SDS011;12845;52.042;6.838;2023-03-20T14:19:47;11.40;;;5.38;;
24745;SDS011;12845;52.042;6.838;2023-03-20T14:22:28;8.98;;;4.95;;
24745;SDS011;12845;52.042;6.838;2023-03-20T14:24:59;9.90;;;5.15;;
24745;SDS011;12845;52.042;6.838;2023-03-20T14:27:33;8.13;;;3.55;;
24745;SDS011;12845;52.042;6.838;2023-03-20T14:33:04;10.30;;;5.22;;
24745;SDS011;12845;52.042;6.838;2023-03-20T14:35:30;9.65;;;4.10;;
24745;SDS011;12845;52.042;6.838;2023-03-20T14:51:59;11.40;;;4.40;;
24745;SDS011;12845;52.042;6.838;2023-03-20T14:54:44;10.65;;;4.65;;
24745;SDS011;12845;52.042;6.838;2023-03-20T14:57:17;9.88;;;4.55;;
24745;SDS011;12845;52.042;6.838;2023-03-20T14:59:51;11.15;;;4.82;;
24745;SDS011;12845;52.042;6.838;2023-03-20T15:02:26;12.30;;;5.60;;
24745;SDS011;12845;52.042;6.838;2023-03-20T15:04:53;16.73;;;7.00;;
24745;SDS011;12845;52.042;6.838;2023-03-20T15:07:28;8.88;;;5.00;;
24745;SDS011;12845;52.042;6.838;2023-03-20T15:09:56;13.82;;;5.65;;
24745;SDS011;12845;52.042;6.838;2023-03-20T15:14:58;13.60;;;6.28;;
24745;SDS011;12845;52.042;6.838;2023-03-20T15:17:34;13.63;;;6.18;;
24745;SDS011;12845;52.042;6.838;2023-03-20T15:22:47;12.95;;;6.60;;
24745;SDS011;12845;52.042;6.838;2023-03-20T15:25:38;11.30;;;6.20;;
24745;SDS011;12845;52.042;6.838;2023-03-20T15:28:17;15.02;;;6.53;;
24745;SDS011;12845;52.042;6.838;2023-03-20T15:30:47;16.38;;;6.95;;
24745;SDS011;12845;52.042;6.838;2023-03-20T15:33:23;17.63;;;8.43;;
24745;SDS011;12845;52.042;6.838;2023-03-20T15:35:51;15.77;;;7.43;;
24745;SDS011;12845;52.042;6.838;2023-03-20T15:38:16;13.85;;;7.53;;
24745;SDS011;12845;52.042;6.838;2023-03-20T15:40:43;12.70;;;6.93;;
24745;SDS011;12845;52.042;6.838;2023-03-20T15:43:11;17.02;;;7.38;;
24745;SDS011;12845;52.042;6.838;2023-03-20T15:45:45;17.80;;;8.38;;
24745;SDS011;12845;52.042;6.838;2023-03-20T15:48:18;14.95;;;7.53;;
24745;SDS011;12845;52.042;6.838;2023-03-20T15:50:45;14.63;;;8.80;;
24745;SDS011;12845;52.042;6.838;2023-03-20T15:53:16;17.23;;;9.15;;
24745;SDS011;12845;52.042;6.838;2023-03-20T15:55:47;16.35;;;10.07;;
24745;SDS011;12845;52.042;6.838;2023-03-20T15:58:15;21.73;;;9.68;;
24745;SDS011;12845;52.042;6.838;2023-03-20T16:00:42;19.08;;;9.00;;
24745;SDS011;12845;52.042;6.838;2023-03-20T16:03:12;19.48;;;9.05;;
24745;SDS011;12845;52.042;6.838;2023-03-20T16:05:41;16.88;;;10.07;;
24745;SDS011;12845;52.042;6.838;2023-03-20T16:08:22;19.33;;;10.13;;
24745;SDS011;12845;52.042;6.838;2023-03-20T16:13:35;20.02;;;9.75;;
24745;SDS011;12845;52.042;6.838;2023-03-20T16:16:04;19.33;;;10.27;;
24745;SDS011;12845;52.042;6.838;2023-03-20T16:18:32;19.02;;;9.65;;
24745;SDS011;12845;52.042;6.838;2023-03-20T16:21:02;19.20;;;10.82;;
24745;SDS011;12845;52.042;6.838;2023-03-20T16:23:32;22.98;;;11.52;;
24745;SDS011;12845;52.042;6.838;2023-03-20T16:26:02;21.58;;;11.57;;
24745;SDS011;12845;52.042;6.838;2023-03-20T16:28:30;22.77;;;12.43;;
24745;SDS011;12845;52.042;6.838;2023-03-20T16:31:02;19.40;;;10.68;;
24745;SDS011;12845;52.042;6.838;2023-03-20T16:33:32;19.77;;;12.95;;
24745;SDS011;12845;52.042;6.838;2023-03-20T16:35:58;21.65;;;11.23;;
24745;SDS011;12845;52.042;6.838;2023-03-20T16:38:26;19.60;;;12.50;;
24745;SDS011;12845;52.042;6.838;2023-03-20T16:43:51;20.55;;;11.60;;
24745;SDS011;12845;52.042;6.838;2023-03-20T16:46:18;24.38;;;13.52;;
24745;SDS011;12845;52.042;6.838;2023-03-20T16:48:55;24.92;;;11.68;;
24745;SDS011;12845;52.042;6.838;2023-03-20T16:51:23;26.15;;;12.98;;
24745;SDS011;12845;52.042;6.838;2023-03-20T16:53:57;20.10;;;12.35;;
24745;SDS011;12845;52.042;6.838;2023-03-20T16:56:28;26.58;;;12.45;;
24745;SDS011;12845;52.042;6.838;2023-03-20T16:58:58;22.63;;;14.00;;
24745;SDS011;12845;52.042;6.838;2023-03-20T17:01:34;25.65;;;13.07;;
24745;SDS011;12845;52.042;6.838;2023-03-20T17:04:38;22.02;;;13.90;;
24745;SDS011;12845;52.042;6.838;2023-03-20T17:06:59;27.98;;;14.95;;
24745;SDS011;12845;52.042;6.838;2023-03-20T17:09:29;24.10;;;11.45;;
24745;SDS011;12845;52.042;6.838;2023-03-20T17:12:00;23.10;;;13.18;;
24745;SDS011;12845;52.042;6.838;2023-03-20T17:14:36;24.10;;;14.95;;
24745;SDS011;12845;52.042;6.838;2023-03-20T17:17:01;26.80;;;14.82;;
24745;SDS011;12845;52.042;6.838;2023-03-20T17:19:27;22.85;;;15.05;;
24745;SDS011;12845;52.042;6.838;2023-03-20T17:21:56;22.05;;;13.40;;